sensor_id;sensor_type;location;lat;lon;timestamp;P1;durP1;ratioP1;P2;durP2;ratioP2
44572;SDS011;31762;45.420;10.072;2022-08-03T00:03:18;2.07;;;1.40;;
44572;SDS011;31762;45.420;10.072;2022-08-03T00:08:20;4.00;;;1.53;;
44572;SDS011;31762;45.420;10.072;2022-08-03T00:13:22;1.83;;;1.40;;
44572;SDS011;31762;45.420;10.072;2022-08-03T00:18:24;3.10;;;1.33;;
44572;SDS011;31762;45.420;10.072;2022-08-03T00:23:26;2.40;;;1.33;;
44572;SDS011;31762;45.420;10.072;2022-08-03T00:28:48;2.33;;;1.10;;
44572;SDS011;31762;45.420;10.072;2022-08-03T00:33:50;1.85;;;1.20;;
44572;SDS011;31762;45.420;10.072;2022-08-03T00:39:03;2.92;;;2.00;;
44572;SDS011;31762;45.420;10.072;2022-08-03T00:44:05;4.05;;;3.17;;
44572;SDS011;31762;45.420;10.072;2022-08-03T00:49:06;3.97;;;2.87;;
44572;SDS011;31762;45.420;10.072;2022-08-03T00:54:08;2.92;;;2.70;;
44572;SDS011;31762;45.420;10.072;2022-08-03T00:59:10;2.72;;;2.40;;
44572;SDS011;31762;45.420;10.072;2022-08-03T01:04:14;2.90;;;2.60;;
44572;SDS011;31762;45.420;10.072;2022-08-03T01:09:26;3.00;;;2.63;;
44572;SDS011;31762;45.420;10.072;2022-08-03T01:20:11;2.63;;;2.30;;
44572;SDS011;31762;45.420;10.072;2022-08-03T01:30:29;3.50;;;2.63;;
44572;SDS011;31762;45.420;10.072;2022-08-03T01:35:34;2.60;;;2.30;;
44572;SDS011;31762;45.420;10.072;2022-08-03T01:40:41;5.05;;;3.10;;
44572;SDS011;31762;45.420;10.072;2022-08-03T01:45:45;3.03;;;2.72;;
44572;SDS011;31762;45.420;10.072;2022-08-03T01:50:48;6.57;;;2.97;;
44572;SDS011;31762;45.420;10.072;2022-08-03T01:55:52;2.90;;;2.25;;
44572;SDS011;31762;45.420;10.072;2022-08-03T02:00:55;2.58;;;2.05;;
44572;SDS011;31762;45.420;10.072;2022-08-03T02:05:59;2.58;;;2.30;;
44572;SDS011;31762;45.420;10.072;2022-08-03T02:11:22;3.42;;;2.47;;
44572;SDS011;31762;45.420;10.072;2022-08-03T02:16:24;2.70;;;2.50;;
44572;SDS011;31762;45.420;10.072;2022-08-03T02:21:31;2.45;;;2.13;;
44572;SDS011;31762;45.420;10.072;2022-08-03T02:26:55;2.60;;;2.40;;
44572;SDS011;31762;45.420;10.072;2022-08-03T02:31:59;3.33;;;2.60;;
44572;SDS011;31762;45.420;10.072;2022-08-03T02:37:03;2.63;;;2.23;;
44572;SDS011;31762;45.420;10.072;2022-08-03T02:42:07;3.60;;;2.50;;
44572;SDS011;31762;45.420;10.072;2022-08-03T02:47:12;3.50;;;2.47;;
44572;SDS011;31762;45.420;10.072;2022-08-03T02:52:15;3.60;;;2.60;;
44572;SDS011;31762;45.420;10.072;2022-08-03T02:57:19;2.93;;;2.10;;
44572;SDS011;31762;45.420;10.072;2022-08-03T03:02:23;3.30;;;2.47;;
44572;SDS011;31762;45.420;10.072;2022-08-03T03:07:25;2.25;;;2.05;;
44572;SDS011;31762;45.420;10.072;2022-08-03T03:12:32;3.60;;;2.70;;
44572;SDS011;31762;45.420;10.072;2022-08-03T03:17:36;3.73;;;2.77;;
44572;SDS011;31762;45.420;10.072;2022-08-03T03:22:39;3.20;;;2.90;;
44572;SDS011;31762;45.420;10.072;2022-08-03T03:27:45;3.90;;;2.60;;
44572;SDS011;31762;45.420;10.072;2022-08-03T03:32:51;2.88;;;2.58;;
44572;SDS011;31762;45.420;10.072;2022-08-03T03:37:53;4.97;;;3.00;;
44572;SDS011;31762;45.420;10.072;2022-08-03T03:42:55;2.97;;;2.57;;
44572;SDS011;31762;45.420;10.072;2022-08-03T03:47:58;3.03;;;2.07;;
44572;SDS011;31762;45.420;10.072;2022-08-03T03:53:01;2.55;;;2.22;;
44572;SDS011;31762;45.420;10.072;2022-08-03T03:58:04;3.03;;;2.65;;
44572;SDS011;31762;45.420;10.072;2022-08-03T04:03:06;2.60;;;2.40;;
44572;SDS011;31762;45.420;10.072;2022-08-03T04:08:13;3.50;;;3.20;;
44572;SDS011;31762;45.420;10.072;2022-08-03T04:13:18;5.00;;;3.20;;
44572;SDS011;31762;45.420;10.072;2022-08-03T04:18:22;4.37;;;2.90;;
44572;SDS011;31762;45.420;10.072;2022-08-03T04:23:26;4.05;;;3.20;;
44572;SDS011;31762;45.420;10.072;2022-08-03T04:28:30;4.40;;;2.85;;
44572;SDS011;31762;45.420;10.072;2022-08-03T04:33:34;3.60;;;2.78;;
44572;SDS011;31762;45.420;10.072;2022-08-03T04:38:39;3.40;;;3.10;;
44572;SDS011;31762;45.420;10.072;2022-08-03T04:43:54;3.33;;;3.03;;
44572;SDS011;31762;45.420;10.072;2022-08-03T04:48:58;3.53;;;2.55;;
44572;SDS011;31762;45.420;10.072;2022-08-03T04:54:01;3.97;;;2.65;;
44572;SDS011;31762;45.420;10.072;2022-08-03T04:59:05;3.80;;;2.80;;
44572;SDS011;31762;45.420;10.072;2022-08-03T05:04:07;3.50;;;2.70;;
44572;SDS011;31762;45.420;10.072;2022-08-03T05:09:09;3.35;;;2.20;;
44572;SDS011;31762;45.420;10.072;2022-08-03T05:14:11;2.25;;;1.90;;
44572;SDS011;31762;45.420;10.072;2022-08-03T05:19:13;2.83;;;1.80;;
44572;SDS011;31762;45.420;10.072;2022-08-03T05:24:14;2.43;;;1.93;;
44572;SDS011;31762;45.420;10.072;2022-08-03T05:29:16;2.77;;;1.90;;
44572;SDS011;31762;45.420;10.072;2022-08-03T05:34:18;3.47;;;2.03;;
44572;SDS011;31762;45.420;10.072;2022-08-03T05:39:20;1.77;;;1.58;;
44572;SDS011;31762;45.420;10.072;2022-08-03T05:44:22;2.95;;;1.85;;
44572;SDS011;31762;45.420;10.072;2022-08-03T05:49:23;2.72;;;2.22;;
44572;SDS011;31762;45.420;10.072;2022-08-03T05:54:25;2.33;;;1.58;;
44572;SDS011;31762;45.420;10.072;2022-08-03T05:59:47;2.47;;;2.15;;
44572;SDS011;31762;45.420;10.072;2022-08-03T06:04:58;1.98;;;1.73;;
44572;SDS011;31762;45.420;10.072;2022-08-03T06:10:00;4.07;;;2.50;;
44572;SDS011;31762;45.420;10.072;2022-08-03T06:15:23;2.15;;;1.67;;
44572;SDS011;31762;45.420;10.072;2022-08-03T06:20:25;2.00;;;1.60;;
44572;SDS011;31762;45.420;10.072;2022-08-03T06:25:27;2.90;;;1.67;;
44572;SDS011;31762;45.420;10.072;2022-08-03T06:30:29;2.65;;;1.55;;
44572;SDS011;31762;45.420;10.072;2022-08-03T06:35:31;3.50;;;1.65;;
44572;SDS011;31762;45.420;10.072;2022-08-03T06:40:35;2.78;;;1.55;;
44572;SDS011;31762;45.420;10.072;2022-08-03T06:45:38;1.88;;;1.60;;
44572;SDS011;31762;45.420;10.072;2022-08-03T06:50:40;2.05;;;1.35;;
44572;SDS011;31762;45.420;10.072;2022-08-03T06:55:42;2.67;;;1.80;;
44572;SDS011;31762;45.420;10.072;2022-08-03T07:00:44;1.70;;;1.52;;
44572;SDS011;31762;45.420;10.072;2022-08-03T07:05:46;3.53;;;1.50;;
44572;SDS011;31762;45.420;10.072;2022-08-03T07:10:48;2.78;;;1.75;;
44572;SDS011;31762;45.420;10.072;2022-08-03T07:15:50;2.55;;;2.00;;
44572;SDS011;31762;45.420;10.072;2022-08-03T07:20:56;2.67;;;1.70;;
44572;SDS011;31762;45.420;10.072;2022-08-03T07:25:58;2.22;;;1.75;;
44572;SDS011;31762;45.420;10.072;2022-08-03T07:31:00;3.67;;;1.90;;
44572;SDS011;31762;45.420;10.072;2022-08-03T07:36:02;1.10;;;0.90;;
44572;SDS011;31762;45.420;10.072;2022-08-03T07:41:04;1.58;;;1.38;;
44572;SDS011;31762;45.420;10.072;2022-08-03T07:46:06;2.92;;;1.33;;
44572;SDS011;31762;45.420;10.072;2022-08-03T07:51:07;1.20;;;0.70;;
44572;SDS011;31762;45.420;10.072;2022-08-03T07:56:10;0.80;;;0.80;;
44572;SDS011;31762;45.420;10.072;2022-08-03T08:01:11;1.80;;;1.27;;
44572;SDS011;31762;45.420;10.072;2022-08-03T08:06:15;2.30;;;1.00;;
44572;SDS011;31762;45.420;10.072;2022-08-03T08:11:18;2.80;;;1.35;;
44572;SDS011;31762;45.420;10.072;2022-08-03T08:16:19;1.57;;;1.00;;
44572;SDS011;31762;45.420;10.072;2022-08-03T08:21:21;2.88;;;1.08;;
44572;SDS011;31762;45.420;10.072;2022-08-03T08:26:26;0.90;;;0.70;;
44572;SDS011;31762;45.420;10.072;2022-08-03T08:31:28;1.77;;;1.00;;
44572;SDS011;31762;45.420;10.072;2022-08-03T08:36:33;1.13;;;0.70;;
44572;SDS011;31762;45.420;10.072;2022-08-03T08:41:36;0.88;;;0.73;;
44572;SDS011;31762;45.420;10.072;2022-08-03T08:46:46;2.67;;;0.80;;
44572;SDS011;31762;45.420;10.072;2022-08-03T08:51:49;0.60;;;0.50;;
44572;SDS011;31762;45.420;10.072;2022-08-03T08:57:02;1.73;;;0.70;;
44572;SDS011;31762;45.420;10.072;2022-08-03T09:02:24;0.65;;;0.50;;
44572;SDS011;31762;45.420;10.072;2022-08-03T09:07:29;1.98;;;0.60;;
44572;SDS011;31762;45.420;10.072;2022-08-03T09:12:35;1.70;;;0.80;;
44572;SDS011;31762;45.420;10.072;2022-08-03T09:17:44;1.10;;;0.80;;
44572;SDS011;31762;45.420;10.072;2022-08-03T09:23:01;0.82;;;0.65;;
44572;SDS011;31762;45.420;10.072;2022-08-03T09:28:33;2.10;;;0.90;;
44572;SDS011;31762;45.420;10.072;2022-08-03T09:33:55;1.88;;;1.10;;
44572;SDS011;31762;45.420;10.072;2022-08-03T09:39:04;2.50;;;0.70;;
44572;SDS011;31762;45.420;10.072;2022-08-03T09:44:10;1.48;;;0.80;;
44572;SDS011;31762;45.420;10.072;2022-08-03T09:49:25;1.60;;;0.70;;
44572;SDS011;31762;45.420;10.072;2022-08-03T09:54:27;0.63;;;0.50;;
44572;SDS011;31762;45.420;10.072;2022-08-03T09:59:31;1.90;;;0.70;;
44572;SDS011;31762;45.420;10.072;2022-08-03T10:04:33;0.80;;;0.50;;
44572;SDS011;31762;45.420;10.072;2022-08-03T10:09:54;1.00;;;0.60;;
44572;SDS011;31762;45.420;10.072;2022-08-03T10:14:56;0.68;;;0.50;;
44572;SDS011;31762;45.420;10.072;2022-08-03T10:19:58;2.30;;;0.60;;
44572;SDS011;31762;45.420;10.072;2022-08-03T10:25:05;0.63;;;0.40;;
44572;SDS011;31762;45.420;10.072;2022-08-03T10:30:13;1.10;;;0.60;;
44572;SDS011;31762;45.420;10.072;2022-08-03T10:35:17;0.90;;;0.40;;
44572;SDS011;31762;45.420;10.072;2022-08-03T10:40:22;2.45;;;1.10;;
44572;SDS011;31762;45.420;10.072;2022-08-03T10:45:44;0.50;;;0.50;;
44572;SDS011;31762;45.420;10.072;2022-08-03T10:50:49;1.30;;;0.65;;
44572;SDS011;31762;45.420;10.072;2022-08-03T10:55:52;1.83;;;0.90;;
44572;SDS011;31762;45.420;10.072;2022-08-03T11:00:54;0.90;;;0.73;;
44572;SDS011;31762;45.420;10.072;2022-08-03T11:16:22;1.00;;;0.75;;
44572;SDS011;31762;45.420;10.072;2022-08-03T11:27:10;1.00;;;0.60;;
44572;SDS011;31762;45.420;10.072;2022-08-03T11:43:05;1.75;;;0.80;;
44572;SDS011;31762;45.420;10.072;2022-08-03T11:48:13;0.80;;;0.63;;
44572;SDS011;31762;45.420;10.072;2022-08-03T11:53:17;0.77;;;0.53;;
44572;SDS011;31762;45.420;10.072;2022-08-03T11:58:20;1.00;;;0.75;;
44572;SDS011;31762;45.420;10.072;2022-08-03T12:03:42;1.60;;;1.00;;
44572;SDS011;31762;45.420;10.072;2022-08-03T12:08:45;1.70;;;0.80;;
44572;SDS011;31762;45.420;10.072;2022-08-03T12:13:50;0.68;;;0.50;;
44572;SDS011;31762;45.420;10.072;2022-08-03T12:19:11;0.90;;;0.60;;
44572;SDS011;31762;45.420;10.072;2022-08-03T12:24:13;1.40;;;0.75;;
44572;SDS011;31762;45.420;10.072;2022-08-03T12:29:21;0.97;;;0.43;;
44572;SDS011;31762;45.420;10.072;2022-08-03T12:34:23;2.00;;;1.10;;
44572;SDS011;31762;45.420;10.072;2022-08-03T12:39:48;0.63;;;0.50;;
44572;SDS011;31762;45.420;10.072;2022-08-03T12:50:24;1.10;;;0.57;;
44572;SDS011;31762;45.420;10.072;2022-08-03T12:55:36;1.00;;;0.60;;
44572;SDS011;31762;45.420;10.072;2022-08-03T13:00:58;0.82;;;0.50;;
44572;SDS011;31762;45.420;10.072;2022-08-03T13:06:01;0.60;;;0.43;;
44572;SDS011;31762;45.420;10.072;2022-08-03T13:11:22;2.85;;;0.73;;
44572;SDS011;31762;45.420;10.072;2022-08-03T13:16:45;1.60;;;0.80;;
44572;SDS011;31762;45.420;10.072;2022-08-03T13:21:48;0.80;;;0.50;;
44572;SDS011;31762;45.420;10.072;2022-08-03T13:27:03;0.90;;;0.30;;
44572;SDS011;31762;45.420;10.072;2022-08-03T13:32:25;0.93;;;0.40;;
44572;SDS011;31762;45.420;10.072;2022-08-03T13:37:27;0.80;;;0.40;;
44572;SDS011;31762;45.420;10.072;2022-08-03T13:42:32;2.80;;;0.43;;
44572;SDS011;31762;45.420;10.072;2022-08-03T13:47:35;0.60;;;0.50;;
44572;SDS011;31762;45.420;10.072;2022-08-03T13:52:36;0.77;;;0.60;;
44572;SDS011;31762;45.420;10.072;2022-08-03T13:57:38;1.40;;;0.45;;
44572;SDS011;31762;45.420;10.072;2022-08-03T14:03:00;1.00;;;0.60;;
44572;SDS011;31762;45.420;10.072;2022-08-03T14:08:13;0.60;;;0.50;;
44572;SDS011;31762;45.420;10.072;2022-08-03T14:13:15;1.02;;;0.50;;
44572;SDS011;31762;45.420;10.072;2022-08-03T14:18:18;0.38;;;0.30;;
44572;SDS011;31762;45.420;10.072;2022-08-03T14:23:29;0.47;;;0.28;;
44572;SDS011;31762;45.420;10.072;2022-08-03T14:28:31;2.83;;;0.70;;
44572;SDS011;31762;45.420;10.072;2022-08-03T14:33:33;0.70;;;0.40;;
44572;SDS011;31762;45.420;10.072;2022-08-03T14:38:35;0.65;;;0.65;;
44572;SDS011;31762;45.420;10.072;2022-08-03T14:43:37;0.60;;;0.50;;
44572;SDS011;31762;45.420;10.072;2022-08-03T14:48:38;1.23;;;0.52;;
44572;SDS011;31762;45.420;10.072;2022-08-03T14:54:00;0.55;;;0.40;;
44572;SDS011;31762;45.420;10.072;2022-08-03T14:59:02;1.10;;;0.50;;
44572;SDS011;31762;45.420;10.072;2022-08-03T15:04:04;0.73;;;0.50;;
44572;SDS011;31762;45.420;10.072;2022-08-03T15:09:05;1.15;;;0.52;;
44572;SDS011;31762;45.420;10.072;2022-08-03T15:14:23;1.70;;;0.40;;
44572;SDS011;31762;45.420;10.072;2022-08-03T15:19:33;0.93;;;0.40;;
44572;SDS011;31762;45.420;10.072;2022-08-03T15:24:55;0.60;;;0.50;;
44572;SDS011;31762;45.420;10.072;2022-08-03T15:29:57;0.70;;;0.40;;
44572;SDS011;31762;45.420;10.072;2022-08-03T15:35:10;0.63;;;0.40;;
44572;SDS011;31762;45.420;10.072;2022-08-03T15:40:12;0.60;;;0.30;;
44572;SDS011;31762;45.420;10.072;2022-08-03T15:45:13;3.03;;;0.60;;
44572;SDS011;31762;45.420;10.072;2022-08-03T15:50:18;0.77;;;0.40;;
44572;SDS011;31762;45.420;10.072;2022-08-03T15:55:19;0.85;;;0.40;;
44572;SDS011;31762;45.420;10.072;2022-08-03T16:00:49;0.70;;;0.40;;
44572;SDS011;31762;45.420;10.072;2022-08-03T16:05:50;0.40;;;0.30;;
44572;SDS011;31762;45.420;10.072;2022-08-03T16:10:52;1.25;;;0.50;;
44572;SDS011;31762;45.420;10.072;2022-08-03T16:15:55;2.60;;;0.50;;
44572;SDS011;31762;45.420;10.072;2022-08-03T16:20:57;1.40;;;0.50;;
44572;SDS011;31762;45.420;10.072;2022-08-03T16:25:58;1.50;;;0.60;;
44572;SDS011;31762;45.420;10.072;2022-08-03T16:31:00;0.73;;;0.50;;
44572;SDS011;31762;45.420;10.072;2022-08-03T16:36:02;0.57;;;0.40;;
44572;SDS011;31762;45.420;10.072;2022-08-03T16:41:04;1.63;;;0.63;;
44572;SDS011;31762;45.420;10.072;2022-08-03T16:46:06;0.50;;;0.40;;
44572;SDS011;31762;45.420;10.072;2022-08-03T16:51:07;1.80;;;0.60;;
44572;SDS011;31762;45.420;10.072;2022-08-03T16:56:09;0.90;;;0.32;;
44572;SDS011;31762;45.420;10.072;2022-08-03T17:01:12;2.80;;;0.80;;
44572;SDS011;31762;45.420;10.072;2022-08-03T17:06:25;1.92;;;0.50;;
44572;SDS011;31762;45.420;10.072;2022-08-03T17:11:36;0.73;;;0.50;;
44572;SDS011;31762;45.420;10.072;2022-08-03T17:16:48;1.00;;;0.35;;
44572;SDS011;31762;45.420;10.072;2022-08-03T17:22:17;1.30;;;0.50;;
44572;SDS011;31762;45.420;10.072;2022-08-03T17:27:23;0.80;;;0.55;;
44572;SDS011;31762;45.420;10.072;2022-08-03T17:32:46;0.83;;;0.60;;
44572;SDS011;31762;45.420;10.072;2022-08-03T17:37:57;1.50;;;0.40;;
44572;SDS011;31762;45.420;10.072;2022-08-03T17:43:05;1.60;;;0.53;;
44572;SDS011;31762;45.420;10.072;2022-08-03T17:48:29;2.15;;;0.70;;
44572;SDS011;31762;45.420;10.072;2022-08-03T17:53:36;1.75;;;0.73;;
44572;SDS011;31762;45.420;10.072;2022-08-03T17:58:43;1.73;;;0.67;;
44572;SDS011;31762;45.420;10.072;2022-08-03T18:04:08;3.50;;;1.02;;
44572;SDS011;31762;45.420;10.072;2022-08-03T18:09:12;2.13;;;0.70;;
44572;SDS011;31762;45.420;10.072;2022-08-03T18:14:43;1.07;;;0.77;;
44572;SDS011;31762;45.420;10.072;2022-08-03T18:20:01;1.50;;;1.00;;
44572;SDS011;31762;45.420;10.072;2022-08-03T18:25:23;2.60;;;0.60;;
44572;SDS011;31762;45.420;10.072;2022-08-03T18:30:45;1.70;;;0.77;;
44572;SDS011;31762;45.420;10.072;2022-08-03T18:35:55;3.13;;;0.75;;
44572;SDS011;31762;45.420;10.072;2022-08-03T18:40:59;1.17;;;0.80;;
44572;SDS011;31762;45.420;10.072;2022-08-03T18:46:02;3.70;;;0.85;;
44572;SDS011;31762;45.420;10.072;2022-08-03T18:51:08;4.93;;;1.02;;
44572;SDS011;31762;45.420;10.072;2022-08-03T18:56:40;2.13;;;1.00;;
44572;SDS011;31762;45.420;10.072;2022-08-03T19:01:47;2.93;;;1.30;;
44572;SDS011;31762;45.420;10.072;2022-08-03T19:07:05;2.50;;;1.38;;
44572;SDS011;31762;45.420;10.072;2022-08-03T19:12:09;1.23;;;0.98;;
44572;SDS011;31762;45.420;10.072;2022-08-03T19:17:33;2.97;;;0.87;;
44572;SDS011;31762;45.420;10.072;2022-08-03T19:22:39;3.10;;;0.93;;
44572;SDS011;31762;45.420;10.072;2022-08-03T19:27:46;4.73;;;1.17;;
44572;SDS011;31762;45.420;10.072;2022-08-03T19:32:48;1.85;;;1.00;;
44572;SDS011;31762;45.420;10.072;2022-08-03T19:37:51;1.80;;;1.20;;
44572;SDS011;31762;45.420;10.072;2022-08-03T19:42:58;3.58;;;1.13;;
44572;SDS011;31762;45.420;10.072;2022-08-03T19:48:04;2.40;;;0.93;;
44572;SDS011;31762;45.420;10.072;2022-08-03T19:53:11;1.95;;;1.40;;
44572;SDS011;31762;45.420;10.072;2022-08-03T19:58:13;2.00;;;1.20;;
44572;SDS011;31762;45.420;10.072;2022-08-03T20:03:27;2.53;;;1.13;;
44572;SDS011;31762;45.420;10.072;2022-08-03T20:08:43;1.63;;;1.10;;
44572;SDS011;31762;45.420;10.072;2022-08-03T20:13:52;2.10;;;1.17;;
44572;SDS011;31762;45.420;10.072;2022-08-03T20:18:54;2.20;;;1.33;;
44572;SDS011;31762;45.420;10.072;2022-08-03T20:23:58;1.80;;;1.27;;
44572;SDS011;31762;45.420;10.072;2022-08-03T20:29:26;1.60;;;1.50;;
44572;SDS011;31762;45.420;10.072;2022-08-03T20:34:43;3.00;;;1.60;;
44572;SDS011;31762;45.420;10.072;2022-08-03T20:39:49;4.15;;;2.03;;
44572;SDS011;31762;45.420;10.072;2022-08-03T20:44:51;2.78;;;1.45;;
44572;SDS011;31762;45.420;10.072;2022-08-03T20:50:06;3.30;;;1.50;;
44572;SDS011;31762;45.420;10.072;2022-08-03T20:55:09;3.20;;;1.75;;
44572;SDS011;31762;45.420;10.072;2022-08-03T21:00:31;1.97;;;1.30;;
44572;SDS011;31762;45.420;10.072;2022-08-03T21:05:33;1.98;;;1.52;;
44572;SDS011;31762;45.420;10.072;2022-08-03T21:10:53;2.70;;;2.50;;
44572;SDS011;31762;45.420;10.072;2022-08-03T21:16:00;3.53;;;2.25;;
44572;SDS011;31762;45.420;10.072;2022-08-03T21:21:15;3.35;;;2.50;;
44572;SDS011;31762;45.420;10.072;2022-08-03T21:26:20;2.73;;;2.27;;
44572;SDS011;31762;45.420;10.072;2022-08-03T21:31:24;3.22;;;1.98;;
44572;SDS011;31762;45.420;10.072;2022-08-03T21:36:27;2.15;;;1.83;;
44572;SDS011;31762;45.420;10.072;2022-08-03T21:41:31;3.17;;;2.25;;
44572;SDS011;31762;45.420;10.072;2022-08-03T21:46:35;2.42;;;2.15;;
44572;SDS011;31762;45.420;10.072;2022-08-03T21:51:39;2.47;;;2.22;;
44572;SDS011;31762;45.420;10.072;2022-08-03T21:56:41;3.20;;;1.90;;
44572;SDS011;31762;45.420;10.072;2022-08-03T22:01:47;2.50;;;2.03;;
44572;SDS011;31762;45.420;10.072;2022-08-03T22:06:58;3.10;;;2.00;;
44572;SDS011;31762;45.420;10.072;2022-08-03T22:12:00;2.90;;;1.60;;
44572;SDS011;31762;45.420;10.072;2022-08-03T22:17:03;2.13;;;1.92;;
44572;SDS011;31762;45.420;10.072;2022-08-03T22:22:08;3.73;;;2.00;;
44572;SDS011;31762;45.420;10.072;2022-08-03T22:27:11;2.70;;;1.97;;
44572;SDS011;31762;45.420;10.072;2022-08-03T22:32:15;2.67;;;2.00;;
44572;SDS011;31762;45.420;10.072;2022-08-03T22:37:17;3.63;;;2.42;;
44572;SDS011;31762;45.420;10.072;2022-08-03T22:42:22;2.80;;;2.40;;
44572;SDS011;31762;45.420;10.072;2022-08-03T22:47:25;4.47;;;1.97;;
44572;SDS011;31762;45.420;10.072;2022-08-03T22:52:27;2.88;;;2.42;;
44572;SDS011;31762;45.420;10.072;2022-08-03T22:57:31;3.55;;;2.20;;
44572;SDS011;31762;45.420;10.072;2022-08-03T23:02:34;2.90;;;2.60;;
44572;SDS011;31762;45.420;10.072;2022-08-03T23:07:37;3.47;;;2.30;;
44572;SDS011;31762;45.420;10.072;2022-08-03T23:12:46;2.90;;;2.40;;
44572;SDS011;31762;45.420;10.072;2022-08-03T23:17:53;3.30;;;2.38;;
44572;SDS011;31762;45.420;10.072;2022-08-03T23:22:59;2.60;;;2.00;;
44572;SDS011;31762;45.420;10.072;2022-08-03T23:28:02;2.73;;;2.10;;
44572;SDS011;31762;45.420;10.072;2022-08-03T23:33:06;4.27;;;2.40;;
44572;SDS011;31762;45.420;10.072;2022-08-03T23:38:09;4.47;;;2.37;;
44572;SDS011;31762;45.420;10.072;2022-08-03T23:43:26;2.80;;;2.00;;
44572;SDS011;31762;45.420;10.072;2022-08-03T23:48:52;2.70;;;1.90;;
44572;SDS011;31762;45.420;10.072;2022-08-03T23:53:58;3.40;;;2.07;;
44572;SDS011;31762;45.420;10.072;2022-08-03T23:59:22;3.15;;;2.03;;
